Terminal Aerodrome Forecast
Issued by NWS

Home | Current Version | Previous Version | Graphics & Text | Print | Product List | Glossary On
Versions: 1 2 3 4 5 6 7 8 9 10 11 12 13 14 15 16 17 18 19 20 21 22
718
FTUS43 KIWX 191103 AAC
TAFSBN
TAF AMD
KSBN 191103Z 1911/2006 18006KT 3SM BR OVC004
     FM191400 16006KT 6SM BR OVC008
     FM191600 15006KT P6SM SCT015 OVC120
      TEMPO 1916/1919 BKN015
     FM200200 10006KT 3SM -RA BR OVC015
     FM200500 11006KT 2SM -RA BR OVC008=

USA.gov is the U.S. government's official web portal to all federal, state and local government web resources and services.